LFPB/LBG METAR and TAF weather

Enter ICAO airport designator
Station Type Date Time Source
LFPB METAR 2020/11/27 03:30 UTC NOAA

LFPB 270330Z AUTO VRB02KT 5000 BR NSC 05/05 Q1018 TEMPO 0600 BCFG BKN002


Station Type Date Time Source
LFPB Decoded METAR 2020/11/27 03:30 UTC NOAA

Paris / Le Bourget, France (LFPB) 48-58N 002-27E 65M
Nov 26, 2020 - 10:30 PM EST / 2020.11.27 0330 UTC
Wind: Variable at 2 MPH (2 KT):0
Visibility: 3 mile(s):0
Weather: mist
Temperature: 41 F (5 C)
Dew Point: 41 F (5 C)
Relative Humidity: 100%
Pressure (altimeter): 30.06 in. Hg (1018 hPa)
ob: LFPB 270330Z AUTO VRB02KT 5000 BR NSC 05/05 Q1018 TEMPO 0600 BCFG BKN002
cycle: 3

Station Type Date Time Source
LFPB TAF 2020/11/26 18:21 UTC NOAA

TAF LFPB 261700Z 2618/2718 08003KT CAVOK
BECMG 2619/2621 3000 BR PROB30 2622/2624 0600 FG BKN001 PROB40 2701/2706 0400 FG VV///
BECMG 2709/2711 CAVOK

Example: see airport list